createdAt,value
2022-11-18T00:02:04.426Z,96359.88
2022-11-18T00:04:33.822Z,96357.48
2022-11-18T00:07:03.404Z,96361.73
2022-11-18T00:09:32.992Z,96360.70
2022-11-18T00:12:21.102Z,96360.36
2022-11-18T00:14:50.924Z,96359.52
2022-11-18T00:17:20.362Z,96356.48
2022-11-18T00:19:49.863Z,96351.35
2022-11-18T00:22:19.391Z,96343.03
2022-11-18T00:24:50.092Z,96337.27
2022-11-18T00:27:20.200Z,96338.46
2022-11-18T00:29:49.632Z,96336.40
2022-11-18T00:32:18.873Z,96342.20
2022-11-18T00:34:48.774Z,96346.27
2022-11-18T00:37:18.370Z,96344.93
2022-11-18T00:39:49.043Z,96342.71
2022-11-18T00:42:36.392Z,96343.59
2022-11-18T00:45:07.333Z,96340.24
2022-11-18T00:47:36.923Z,96338.19
2022-11-18T00:50:08.032Z,96340.36
2022-11-18T00:52:37.653Z,96343.09
2022-11-18T00:55:07.980Z,96348.16
2022-11-18T00:57:37.601Z,96344.91
2022-11-18T01:00:10.020Z,96347.64
2022-11-18T01:02:39.542Z,96351.70
2022-11-18T01:05:10.331Z,96349.13
2022-11-18T01:07:39.910Z,96350.61
2022-11-18T01:10:10.260Z,96353.63
2022-11-18T01:12:57.412Z,96351.26
2022-11-18T01:15:27.081Z,96352.79
2022-11-18T01:17:56.642Z,96358.58
2022-11-18T01:20:26.125Z,96357.88
2022-11-18T01:22:56.043Z,96358.04
2022-11-18T01:25:25.492Z,96359.88
2022-11-18T01:27:55.315Z,96357.30
2022-11-18T01:30:25.141Z,96356.80
2022-11-18T01:32:54.634Z,96352.06
2022-11-18T01:35:24.121Z,96344.05
2022-11-18T01:37:53.500Z,96336.21
2022-11-18T01:40:23.113Z,96329.06
2022-11-18T01:42:52.431Z,96321.59
2022-11-18T01:45:32.961Z,96313.80
2022-11-18T01:48:08.984Z,96310.98
2022-11-18T01:50:43.942Z,96307.10
2022-11-18T01:53:17.892Z,96303.20
2022-11-18T01:55:48.071Z,96301.02
2022-11-18T01:58:22.501Z,96301.10
2022-11-18T02:00:52.175Z,96290.56
2022-11-18T02:03:23.053Z,96291.57
2022-11-18T02:05:54.331Z,96287.17
2022-11-18T02:08:24.553Z,96287.02
2022-11-18T02:10:54.102Z,96286.67
2022-11-18T02:13:24.227Z,96287.53
2022-11-18T02:16:02.553Z,96283.48
2022-11-18T02:18:46.508Z,96279.94
2022-11-18T02:21:27.405Z,96276.53
2022-11-18T02:24:35.310Z,96271.92
2022-11-18T02:27:56.508Z,96272.10
2022-11-18T02:30:26.191Z,96281.19
2022-11-18T02:33:01.621Z,96286.43
2022-11-18T02:35:39.232Z,96287.60
2022-11-18T02:38:12.714Z,96286.73
2022-11-18T02:40:46.269Z,96283.70
2022-11-18T02:43:17.232Z,96283.67
2022-11-18T02:45:50.753Z,96279.25
2022-11-18T02:48:24.321Z,96272.78
2022-11-18T02:51:06.363Z,96278.05
2022-11-18T02:53:39.249Z,96282.27
2022-11-18T02:56:29.942Z,96283.42
2022-11-18T02:58:59.481Z,96276.67
2022-11-18T03:01:31.425Z,96272.45
2022-11-18T03:04:01.121Z,96274.66
2022-11-18T03:06:34.512Z,96275.65
2022-11-18T03:09:22.931Z,96277.55
2022-11-18T03:12:01.372Z,96274.02
2022-11-18T03:14:40.671Z,96268.94
2022-11-18T03:17:14.901Z,96269.64
2022-11-18T03:20:02.512Z,96268.58
2022-11-18T03:22:40.681Z,96267.88
2022-11-18T03:25:14.582Z,96268.52
2022-11-18T03:27:51.181Z,96261.05
2022-11-18T03:30:24.121Z,96257.19
2022-11-18T03:33:00.162Z,96257.53
2022-11-18T03:35:34.702Z,96259.07
2022-11-18T03:38:08.883Z,96253.65
2022-11-18T03:40:41.561Z,96249.93
2022-11-18T03:43:15.773Z,96242.53
2022-11-18T03:45:49.781Z,96244.22
2022-11-18T03:48:23.263Z,96242.73
2022-11-18T03:50:56.334Z,96239.17
2022-11-18T03:53:30.452Z,96239.38
2022-11-18T03:56:06.924Z,96242.56
2022-11-18T03:58:43.312Z,96245.45
2022-11-18T04:01:18.104Z,96246.98
2022-11-18T04:03:47.671Z,96249.52
2022-11-18T04:06:25.192Z,96245.43
2022-11-18T04:08:59.891Z,96239.36
2022-11-18T04:11:51.663Z,96238.34
2022-11-18T04:14:21.491Z,96239.71
2022-11-18T04:16:53.473Z,96233.85
2022-11-18T04:19:23.413Z,96234.99
2022-11-18T04:21:52.991Z,96233.75
2022-11-18T04:24:22.312Z,96238.85
2022-11-18T04:26:54.852Z,96241.39
2022-11-18T04:29:24.241Z,96241.89
2022-11-18T04:31:53.483Z,96242.59
2022-11-18T04:34:23.039Z,96246.19
2022-11-18T04:36:55.316Z,96247.52
2022-11-18T04:39:25.582Z,96241.75
2022-11-18T04:41:57.446Z,96237.34
2022-11-18T04:44:29.323Z,96233.77
2022-11-18T04:47:00.522Z,96230.73
2022-11-18T04:49:30.663Z,96227.65
2022-11-18T04:52:00.681Z,96222.71
2022-11-18T04:54:30.396Z,96227.29
2022-11-18T04:56:59.832Z,96223.91
2022-11-18T04:59:30.491Z,96225.77
2022-11-18T05:02:01.110Z,96230.39
2022-11-18T05:04:34.416Z,96231.90
2022-11-18T05:07:05.947Z,96236.81
2022-11-18T05:09:35.801Z,96238.85
2022-11-18T05:12:24.162Z,96233.73
2022-11-18T05:14:54.868Z,96243.77
2022-11-18T05:17:24.968Z,96243.45
2022-11-18T05:19:54.780Z,96247.34
2022-11-18T05:22:24.582Z,96247.67
2022-11-18T05:24:53.905Z,96252.60
2022-11-18T05:27:23.584Z,96256.88
2022-11-18T05:29:53.471Z,96253.98
2022-11-18T05:32:23.113Z,96253.83
2022-11-18T05:34:55.973Z,96255.53
2022-11-18T05:37:25.521Z,96252.13
2022-11-18T05:39:55.202Z,96246.87
2022-11-18T05:42:43.299Z,96252.97
2022-11-18T05:45:12.842Z,96262.32
2022-11-18T05:47:57.063Z,96264.36
2022-11-18T05:50:25.526Z,96264.36
2022-11-18T05:52:55.458Z,96271.70
2022-11-18T05:55:27.662Z,96270.87
2022-11-18T05:57:59.911Z,96275.45
2022-11-18T06:00:32.526Z,96271.39
2022-11-18T06:03:02.934Z,96273.60
2022-11-18T06:05:32.591Z,96273.44
2022-11-18T06:08:02.665Z,96279.25
2022-11-18T06:10:37.020Z,96280.98
2022-11-18T06:13:11.729Z,96282.67
2022-11-18T06:15:44.145Z,96280.62
2022-11-18T06:18:20.425Z,96284.23
2022-11-18T06:20:51.552Z,96285.83
2022-11-18T06:23:21.799Z,96292.92
2022-11-18T06:25:51.132Z,96290.43
2022-11-18T06:28:22.123Z,96290.59
2022-11-18T06:30:51.646Z,96293.29
2022-11-18T06:33:20.911Z,96292.42
2022-11-18T06:35:50.853Z,96294.10
2022-11-18T06:38:23.547Z,96297.15
2022-11-18T06:40:53.079Z,96294.92
2022-11-18T06:43:42.084Z,96290.68
2022-11-18T06:46:31.731Z,96288.81
2022-11-18T06:49:02.371Z,96286.45
2022-11-18T06:51:31.858Z,96289.83
2022-11-18T06:54:04.731Z,96294.94
2022-11-18T06:56:37.273Z,96304.30
2022-11-18T06:59:06.942Z,96302.65
2022-11-18T07:01:39.044Z,96307.05
2022-11-18T07:04:08.701Z,96312.65
2022-11-18T07:06:38.124Z,96316.70
2022-11-18T07:09:08.733Z,96319.06
2022-11-18T07:11:40.821Z,96320.05
2022-11-18T07:14:10.535Z,96321.57
2022-11-18T07:16:40.083Z,96322.60
2022-11-18T07:19:14.314Z,96322.97
2022-11-18T07:21:45.813Z,96327.37
2022-11-18T07:24:16.639Z,96326.67
2022-11-18T07:26:46.022Z,96333.45
2022-11-18T07:29:15.880Z,96328.55
2022-11-18T07:31:45.721Z,96328.53
2022-11-18T07:34:15.552Z,96328.68
2022-11-18T07:36:45.244Z,96325.96
2022-11-18T07:39:14.929Z,96318.67
2022-11-18T07:41:44.615Z,96314.77
2022-11-18T07:44:17.652Z,96312.73
2022-11-18T07:46:47.443Z,96310.20
2022-11-18T07:49:18.485Z,96311.21
2022-11-18T07:51:52.322Z,96313.76
2022-11-18T07:54:22.150Z,96316.13
2022-11-18T07:56:51.511Z,96317.98
2022-11-18T07:59:21.401Z,96316.64
2022-11-18T08:01:54.116Z,96312.22
2022-11-18T08:04:24.240Z,96307.77
2022-11-18T08:06:55.012Z,96307.59
2022-11-18T08:09:26.051Z,96306.41
2022-11-18T08:11:55.752Z,96300.16
2022-11-18T08:14:25.542Z,96293.91
2022-11-18T08:16:55.253Z,96290.17
2022-11-18T08:19:25.002Z,96291.51
2022-11-18T08:21:54.700Z,96291.50
2022-11-18T08:24:24.691Z,96295.56
2022-11-18T08:26:54.253Z,96305.73
2022-11-18T08:29:25.639Z,96314.88
2022-11-18T08:31:55.650Z,96316.95
2022-11-18T08:34:26.051Z,96314.44
2022-11-18T08:36:55.752Z,96308.95
2022-11-18T08:39:25.164Z,96305.41
2022-11-18T08:41:55.051Z,96303.73
2022-11-18T08:44:24.573Z,96307.25
2022-11-18T08:46:54.051Z,96314.73
2022-11-18T08:49:28.258Z,96316.59
2022-11-18T08:52:00.677Z,96319.48
2022-11-18T08:54:31.177Z,96319.63
2022-11-18T08:57:00.905Z,96317.61
2022-11-18T08:59:30.391Z,96323.54
2022-11-18T09:01:59.953Z,96324.21
2022-11-18T09:04:29.794Z,96330.50
2022-11-18T09:06:59.387Z,96335.59
2022-11-18T09:09:29.344Z,96338.80
2022-11-18T09:11:58.951Z,96341.52
2022-11-18T09:17:18.066Z,96350.00
2022-11-18T09:19:48.443Z,96350.33
2022-11-18T09:22:18.223Z,96350.51
2022-11-18T09:24:48.467Z,96354.77
2022-11-18T09:27:18.176Z,96357.05
2022-11-18T09:29:47.972Z,96352.84
2022-11-18T09:32:21.325Z,96357.89
2022-11-18T09:34:50.982Z,96354.84
2022-11-18T09:37:20.503Z,96353.81
2022-11-18T09:39:49.845Z,96341.09
2022-11-18T09:42:40.491Z,96335.84
2022-11-18T09:45:25.383Z,96339.09
2022-11-18T09:47:59.253Z,96349.80
2022-11-18T09:53:21.835Z,96351.59
2022-11-18T09:55:52.679Z,96351.24
2022-11-18T09:58:32.475Z,96347.19
2022-11-18T10:01:04.188Z,96346.83
2022-11-18T10:03:34.592Z,96345.83
2022-11-18T10:06:16.936Z,96347.86
2022-11-18T10:09:05.237Z,96348.05
2022-11-18T10:11:43.362Z,96342.96
2022-11-18T10:14:26.963Z,96339.92
2022-11-18T10:17:04.419Z,96341.83
2022-11-18T10:19:38.933Z,96353.87
2022-11-18T10:22:24.857Z,96353.52
2022-11-18T10:24:56.062Z,96358.08
2022-11-18T10:27:38.382Z,96367.23
2022-11-18T10:30:14.461Z,96366.59
2022-11-18T10:32:58.533Z,96368.43
2022-11-18T10:35:31.571Z,96373.67
2022-11-18T10:38:16.061Z,96374.20
2022-11-18T10:40:57.461Z,96368.80
2022-11-18T10:43:45.830Z,96372.69
2022-11-18T10:46:25.414Z,96371.20
2022-11-18T10:49:17.063Z,96382.89
2022-11-18T10:51:48.272Z,96382.88
2022-11-18T10:54:20.730Z,96385.24
2022-11-18T10:56:57.718Z,96388.80
2022-11-18T10:59:32.594Z,96391.85
2022-11-18T11:02:17.559Z,96392.88
2022-11-18T11:04:48.594Z,96393.36
2022-11-18T11:07:26.413Z,96393.36
2022-11-18T11:10:22.414Z,96387.43
2022-11-18T11:12:56.404Z,96389.13
2022-11-18T11:15:34.430Z,96382.68
2022-11-18T11:18:30.592Z,96378.44
2022-11-18T11:21:00.171Z,96378.77
2022-11-18T11:23:32.781Z,96371.64
2022-11-18T11:29:04.751Z,96374.17
2022-11-18T11:31:49.716Z,96372.99
2022-11-18T11:34:27.934Z,96380.77
2022-11-18T11:37:04.585Z,96381.95
2022-11-18T11:39:49.176Z,96378.05
2022-11-18T11:42:34.477Z,96370.61
2022-11-18T11:45:17.959Z,96371.30
2022-11-18T11:48:05.720Z,96364.33
2022-11-18T11:51:02.014Z,96365.34
2022-11-18T11:54:03.141Z,96360.95
2022-11-18T11:56:38.193Z,96358.91
2022-11-18T11:59:18.732Z,96366.88
2022-11-18T12:02:00.032Z,96369.59
2022-11-18T12:04:38.669Z,96370.42
2022-11-18T12:07:16.217Z,96368.21
2022-11-18T12:10:00.732Z,96362.96
2022-11-18T12:12:37.824Z,96369.88
2022-11-18T12:15:18.732Z,96369.39
2022-11-18T12:17:54.775Z,96365.64
2022-11-18T12:20:42.776Z,96365.65
2022-11-18T12:23:14.872Z,96366.65
2022-11-18T12:26:09.037Z,96368.85
2022-11-18T12:28:42.356Z,96370.38
2022-11-18T12:31:34.787Z,96366.85
2022-11-18T12:34:28.252Z,96367.84
2022-11-18T12:37:18.252Z,96368.54
2022-11-18T12:40:01.195Z,96374.65
2022-11-18T12:43:02.913Z,96377.73
2022-11-18T12:45:59.860Z,96381.44
2022-11-18T12:48:38.561Z,96383.30
2022-11-18T12:51:43.110Z,96381.45
2022-11-18T12:54:35.584Z,96385.67
2022-11-18T12:57:13.915Z,96387.88
2022-11-18T12:59:43.644Z,96389.56
2022-11-18T13:02:25.042Z,96388.06
2022-11-18T13:05:09.082Z,96384.67
2022-11-18T13:08:03.067Z,96382.63
2022-11-18T13:10:36.582Z,96382.46
2022-11-18T13:13:20.080Z,96386.53
2022-11-18T13:16:09.803Z,96393.30
2022-11-18T13:18:50.442Z,96396.52
2022-11-18T13:21:39.941Z,96397.02
2022-11-18T13:24:13.302Z,96399.71
2022-11-18T13:26:44.550Z,96402.43
2022-11-18T13:29:32.169Z,96406.00
2022-11-18T13:32:24.192Z,96410.91
2022-11-18T13:34:56.510Z,96411.41
2022-11-18T13:37:28.110Z,96413.14
2022-11-18T13:39:58.427Z,96410.58
2022-11-18T13:42:29.652Z,96411.23
2022-11-18T13:45:00.050Z,96409.89
2022-11-18T13:47:35.731Z,96405.66
2022-11-18T13:50:17.505Z,96406.33
2022-11-18T13:52:56.013Z,96408.20
2022-11-18T13:55:28.311Z,96408.40
2022-11-18T13:58:04.024Z,96409.58
2022-11-18T14:00:35.982Z,96412.80
2022-11-18T14:03:24.909Z,96416.02
2022-11-18T14:05:56.163Z,96415.84
2022-11-18T14:08:30.421Z,96422.80
2022-11-18T14:11:04.142Z,96424.86
2022-11-18T14:13:38.035Z,96425.85
2022-11-18T14:16:25.031Z,96419.25
2022-11-18T14:18:55.561Z,96421.12
2022-11-18T14:21:30.602Z,96426.02
2022-11-18T14:24:00.831Z,96429.42
2022-11-18T14:26:32.486Z,96440.30
2022-11-18T14:29:17.645Z,96441.83
2022-11-18T14:32:15.957Z,96447.58
2022-11-18T14:34:46.433Z,96454.55
2022-11-18T14:37:16.964Z,96455.07
2022-11-18T14:39:56.700Z,96454.73
2022-11-18T14:42:26.340Z,96455.39
2022-11-18T14:44:56.035Z,96452.86
2022-11-18T14:47:28.612Z,96452.52
2022-11-18T14:49:59.072Z,96458.95
2022-11-18T14:52:29.144Z,96467.77
2022-11-18T14:54:58.864Z,96471.99
2022-11-18T14:57:28.983Z,96477.92
2022-11-18T14:59:59.347Z,96481.14
2022-11-18T15:02:28.867Z,96483.70
2022-11-18T15:04:58.935Z,96488.77
2022-11-18T15:07:28.420Z,96492.69
2022-11-18T15:09:58.821Z,96489.46
2022-11-18T15:12:29.398Z,96492.34
2022-11-18T15:15:02.451Z,96497.09
2022-11-18T15:17:35.776Z,96502.67
2022-11-18T15:20:15.942Z,96497.61
2022-11-18T15:22:48.436Z,96492.67
2022-11-18T15:25:18.006Z,96497.27
2022-11-18T15:27:55.312Z,96495.91
2022-11-18T15:30:27.941Z,96496.09
2022-11-18T15:32:57.663Z,96498.96
2022-11-18T15:35:27.103Z,96502.69
2022-11-18T15:37:57.875Z,96506.75
2022-11-18T15:40:27.514Z,96508.45
2022-11-18T15:42:59.424Z,96509.96
2022-11-18T15:45:29.053Z,96509.47
2022-11-18T15:47:58.441Z,96515.23
2022-11-18T15:50:27.980Z,96513.19
2022-11-18T15:52:57.631Z,96510.48
2022-11-18T15:55:27.261Z,96514.71
2022-11-18T15:57:57.032Z,96512.84
2022-11-18T16:00:26.461Z,96512.84
2022-11-18T16:02:57.344Z,96516.06
2022-11-18T16:05:31.040Z,96516.58
2022-11-18T16:08:00.604Z,96518.10
2022-11-18T16:10:48.172Z,96522.52
2022-11-18T16:13:21.991Z,96526.58
2022-11-18T16:15:51.551Z,96529.28
2022-11-18T16:18:23.513Z,96536.40
2022-11-18T16:20:59.614Z,96537.94
2022-11-18T16:23:29.153Z,96538.27
2022-11-18T16:26:00.421Z,96538.78
2022-11-18T16:28:32.093Z,96536.58
2022-11-18T16:31:21.490Z,96532.85
2022-11-18T16:33:53.359Z,96537.94
2022-11-18T16:36:28.962Z,96537.60
2022-11-18T16:39:06.872Z,96541.32
2022-11-18T16:41:37.201Z,96543.86
2022-11-18T16:44:08.161Z,96548.95
2022-11-18T16:46:40.011Z,96554.38
2022-11-18T16:49:12.937Z,96560.81
2022-11-18T16:51:43.502Z,96564.54
2022-11-18T16:54:19.519Z,96563.35
2022-11-18T16:56:49.606Z,96554.55
2022-11-18T16:59:21.746Z,96554.55
2022-11-18T17:01:53.067Z,96557.59
2022-11-18T17:04:24.135Z,96562.52
2022-11-18T17:06:54.272Z,96563.35
2022-11-18T17:09:25.449Z,96564.38
2022-11-18T17:11:56.240Z,96566.75
2022-11-18T17:14:26.710Z,96564.52
2022-11-18T17:17:00.794Z,96564.86
2022-11-18T17:19:30.684Z,96567.07
2022-11-18T17:22:03.230Z,96573.19
2022-11-18T17:24:34.333Z,96575.70
2022-11-18T17:27:13.080Z,96578.23
2022-11-18T17:29:51.705Z,96577.56
2022-11-18T17:32:24.631Z,96586.03
2022-11-18T17:34:55.029Z,96574.33
2022-11-18T17:37:26.442Z,96572.98
2022-11-18T17:39:56.012Z,96570.95
2022-11-18T17:42:28.046Z,96573.81
2022-11-18T17:44:58.142Z,96579.58
2022-11-18T17:47:29.801Z,96583.45
2022-11-18T17:49:59.912Z,96587.16
2022-11-18T17:52:29.641Z,96589.06
2022-11-18T17:55:00.439Z,96587.88
2022-11-18T17:57:30.321Z,96588.89
2022-11-18T17:59:59.680Z,96587.19
2022-11-18T18:02:28.982Z,96593.47
2022-11-18T18:04:59.230Z,96593.80
2022-11-18T18:07:30.824Z,96591.95
2022-11-18T18:10:00.382Z,96591.42
2022-11-18T18:12:47.921Z,96590.59
2022-11-18T18:15:17.932Z,96592.96
2022-11-18T18:17:50.950Z,96599.41
2022-11-18T18:20:21.182Z,96602.27
2022-11-18T18:22:50.702Z,96611.59
2022-11-18T18:25:21.133Z,96611.94
2022-11-18T18:27:54.179Z,96613.80
2022-11-18T18:30:26.048Z,96617.52
2022-11-18T18:33:04.001Z,96618.88
2022-11-18T18:35:43.380Z,96618.88
2022-11-18T18:38:23.372Z,96623.62
2022-11-18T18:40:54.419Z,96623.45
2022-11-18T18:43:26.385Z,96623.95
2022-11-18T18:46:19.238Z,96623.42
2022-11-18T18:48:49.030Z,96628.81
2022-11-18T18:51:19.040Z,96626.11
2022-11-18T18:53:50.569Z,96630.37
2022-11-18T18:56:20.601Z,96626.63
2022-11-18T18:58:50.909Z,96630.02
2022-11-18T19:01:21.573Z,96632.22
2022-11-18T19:03:57.463Z,96637.79
2022-11-18T19:09:21.368Z,96646.60
2022-11-18T19:12:10.766Z,96640.19
2022-11-18T19:14:41.693Z,96640.67
2022-11-18T19:17:12.963Z,96643.04
2022-11-18T19:20:02.878Z,96644.21
2022-11-18T19:22:34.845Z,96645.91
2022-11-18T19:25:05.678Z,96646.57
2022-11-18T19:27:47.783Z,96650.81
2022-11-18T19:30:19.301Z,96654.88
2022-11-18T19:32:49.879Z,96651.80
2022-11-18T19:35:19.880Z,96654.20
2022-11-18T19:37:50.356Z,96656.23
2022-11-18T19:40:20.339Z,96660.15
2022-11-18T19:42:49.880Z,96656.79
2022-11-18T19:45:19.399Z,96657.80
2022-11-18T19:47:55.109Z,96659.83
2022-11-18T19:50:31.058Z,96661.15
2022-11-18T19:53:21.722Z,96662.16
2022-11-18T19:55:57.361Z,96664.88
2022-11-18T19:58:27.202Z,96668.61
2022-11-18T20:00:58.105Z,96670.15
2022-11-18T20:03:29.290Z,96670.98
2022-11-18T20:06:02.363Z,96665.38
2022-11-18T20:08:33.958Z,96664.87
2022-11-18T20:11:09.208Z,96662.84
2022-11-18T20:13:40.079Z,96666.73
2022-11-18T20:16:12.286Z,96670.61
2022-11-18T20:18:42.464Z,96675.02
2022-11-18T20:21:14.948Z,96676.37
2022-11-18T20:23:47.809Z,96673.84
2022-11-18T20:26:19.850Z,96677.89
2022-11-18T20:28:55.884Z,96672.48
2022-11-18T20:31:30.269Z,96661.80
2022-11-18T20:34:02.648Z,96674.84
2022-11-18T20:36:34.191Z,96674.67
2022-11-18T20:39:08.529Z,96671.63
2022-11-18T20:41:38.039Z,96666.70
2022-11-18T20:44:09.741Z,96658.40
2022-11-18T20:46:39.521Z,96660.27
2022-11-18T20:49:09.253Z,96663.67
2022-11-18T20:51:38.682Z,96665.88
2022-11-18T20:54:09.806Z,96672.82
2022-11-18T20:56:41.930Z,96673.14
2022-11-18T20:59:15.060Z,96674.68
2022-11-18T21:01:46.012Z,96677.23
2022-11-18T21:04:15.638Z,96680.10
2022-11-18T21:06:45.662Z,96688.73
2022-11-18T21:09:16.383Z,96698.55
2022-11-18T21:11:46.428Z,96703.80
2022-11-18T21:14:23.935Z,96704.81
2022-11-18T21:16:57.531Z,96705.81
2022-11-18T21:19:27.809Z,96705.80
2022-11-18T21:21:57.940Z,96711.17
2022-11-18T21:24:30.820Z,96711.52
2022-11-18T21:27:09.811Z,96711.19
2022-11-18T21:29:42.931Z,96714.88
2022-11-18T21:32:14.499Z,96713.33
2022-11-18T21:34:45.344Z,96708.41
2022-11-18T21:37:18.880Z,96714.20
2022-11-18T21:39:47.181Z,96710.67
2022-11-18T21:42:16.927Z,96704.73
2022-11-18T21:44:46.348Z,96707.31
2022-11-18T21:47:15.649Z,96713.77
2022-11-18T21:49:45.046Z,96713.61
2022-11-18T21:52:14.302Z,96716.48
2022-11-18T21:54:43.510Z,96712.75
2022-11-18T21:57:12.949Z,96717.45
2022-11-18T21:59:42.183Z,96717.79
2022-11-18T22:02:14.448Z,96721.52
2022-11-18T22:04:52.761Z,96725.55
2022-11-18T22:07:23.366Z,96732.85
2022-11-18T22:09:55.641Z,96733.38
2022-11-18T22:12:25.288Z,96731.98
2022-11-18T22:14:54.720Z,96733.01
2022-11-18T22:17:24.176Z,96733.34
2022-11-18T22:19:53.781Z,96729.46
2022-11-18T22:22:25.989Z,96724.38
2022-11-18T22:24:55.410Z,96731.82
2022-11-18T22:27:29.533Z,96740.95
2022-11-18T22:29:58.988Z,96750.59
2022-11-18T22:32:28.298Z,96754.67
2022-11-18T22:34:58.198Z,96757.70
2022-11-18T22:37:27.661Z,96767.35
2022-11-18T22:40:00.015Z,96772.09
2022-11-18T22:42:47.984Z,96778.02
2022-11-18T22:45:18.480Z,96773.29
2022-11-18T22:47:48.030Z,96776.31
2022-11-18T22:50:17.680Z,96777.49
2022-11-18T22:52:48.051Z,96774.12
2022-11-18T22:55:18.570Z,96772.59
2022-11-18T22:57:48.070Z,96767.83
2022-11-18T23:00:18.781Z,96765.63
2022-11-18T23:02:49.989Z,96768.17
2022-11-18T23:05:19.819Z,96769.02
2022-11-18T23:07:50.030Z,96772.20
2022-11-18T23:10:19.960Z,96774.23
2022-11-18T23:13:07.282Z,96771.05
2022-11-18T23:15:37.028Z,96773.09
2022-11-18T23:18:11.301Z,96779.86
2022-11-18T23:20:41.400Z,96780.70
2022-11-18T23:23:10.874Z,96782.89
2022-11-18T23:25:40.130Z,96786.06
2022-11-18T23:28:09.660Z,96785.07
2022-11-18T23:30:38.924Z,96782.33
2022-11-18T23:33:08.849Z,96784.38
2022-11-18T23:35:38.369Z,96781.66
2022-11-18T23:38:07.811Z,96779.13
2022-11-18T23:40:37.188Z,96775.93
2022-11-18T23:43:06.707Z,96775.40
2022-11-18T23:45:36.171Z,96781.16
2022-11-18T23:48:06.171Z,96782.70
2022-11-18T23:50:39.447Z,96779.98
2022-11-18T23:53:08.973Z,96783.99
2022-11-18T23:55:38.259Z,96788.98
2022-11-18T23:58:07.758Z,96794.05
